createdAt,value
2022-09-23T00:01:35.492Z,100094.59
2022-09-23T00:04:04.065Z,100091.94
2022-09-23T00:06:33.220Z,100091.09
2022-09-23T00:09:01.812Z,100086.06
2022-09-23T00:11:32.162Z,100086.88
2022-09-23T00:14:01.909Z,100081.78
2022-09-23T00:16:32.850Z,100089.34
2022-09-23T00:19:02.310Z,100079.13
2022-09-23T00:21:30.853Z,100082.59
2022-09-23T00:23:59.983Z,100082.59
2022-09-23T00:26:28.932Z,100074.22
2022-09-23T00:28:58.844Z,100073.44
2022-09-23T00:31:28.623Z,100070.94
2022-09-23T00:33:57.985Z,100065.00
2022-09-23T00:36:27.653Z,100063.31
2022-09-23T00:38:56.962Z,100059.06
2022-09-23T00:41:26.543Z,100053.13
2022-09-23T00:43:58.193Z,100047.94
2022-09-23T00:46:31.653Z,100052.03
2022-09-23T00:49:06.194Z,100050.22
2022-09-23T00:51:39.694Z,100053.56
2022-09-23T00:54:08.774Z,100050.03
2022-09-23T00:56:40.603Z,100052.44
2022-09-23T00:59:10.981Z,100049.81
2022-09-23T01:01:41.533Z,100054.78
2022-09-23T01:04:10.202Z,100056.63
2022-09-23T01:06:38.783Z,100058.38
2022-09-23T01:09:07.665Z,100054.16
2022-09-23T01:11:49.254Z,100063.47
2022-09-23T01:14:38.282Z,100049.88
2022-09-23T01:17:13.713Z,100054.91
2022-09-23T01:20:20.614Z,100056.50
2022-09-23T01:22:57.515Z,100055.75
2022-09-23T01:25:47.582Z,100049.91
2022-09-23T01:28:42.663Z,100043.19
2022-09-23T01:31:19.592Z,100043.28
2022-09-23T01:33:55.436Z,100050.13
2022-09-23T01:36:27.814Z,100045.00
2022-09-23T01:39:02.388Z,100046.59
2022-09-23T01:41:51.944Z,100038.06
2022-09-23T01:44:27.007Z,100039.59
2022-09-23T01:47:01.581Z,100037.91
2022-09-23T01:49:35.883Z,100037.94
2022-09-23T01:52:14.993Z,100046.34
2022-09-23T01:54:51.722Z,100046.28
2022-09-23T01:57:26.771Z,100038.66
2022-09-23T02:00:00.815Z,100040.41
2022-09-23T02:02:36.849Z,100040.25
2022-09-23T02:05:12.754Z,100035.97
2022-09-23T02:07:46.233Z,100037.69
2022-09-23T02:10:22.053Z,100036.78
2022-09-23T02:12:52.474Z,100040.16
2022-09-23T02:15:25.083Z,100035.75
2022-09-23T02:18:00.175Z,100034.78
2022-09-23T02:20:32.043Z,100033.13
2022-09-23T02:23:06.530Z,100035.69
2022-09-23T02:25:41.742Z,100033.16
2022-09-23T02:28:16.433Z,100037.47
2022-09-23T02:30:54.702Z,100039.16
2022-09-23T02:33:30.324Z,100036.69
2022-09-23T02:36:07.425Z,100034.22
2022-09-23T02:38:40.862Z,100047.78
2022-09-23T02:41:16.273Z,100037.56
2022-09-23T02:43:51.874Z,100040.03
2022-09-23T02:46:21.563Z,100042.50
2022-09-23T02:48:57.114Z,100044.03
2022-09-23T02:51:29.067Z,100041.53
2022-09-23T02:53:59.351Z,100046.56
2022-09-23T02:56:29.293Z,100052.34
2022-09-23T02:58:59.341Z,100041.31
2022-09-23T03:01:39.603Z,100042.19
2022-09-23T03:04:19.200Z,100042.25
2022-09-23T03:06:56.453Z,100036.22
2022-09-23T03:09:31.454Z,100036.94
2022-09-23T03:12:13.431Z,100033.59
2022-09-23T03:14:52.272Z,100035.22
2022-09-23T03:17:27.740Z,100033.16
2022-09-23T03:20:03.062Z,100036.38
2022-09-23T03:22:36.531Z,100034.38
2022-09-23T03:25:09.701Z,100035.97
2022-09-23T03:27:42.253Z,100039.47
2022-09-23T03:30:12.124Z,100034.47
2022-09-23T03:32:43.563Z,100043.06
2022-09-23T03:35:15.800Z,100045.84
2022-09-23T03:37:50.580Z,100048.53
2022-09-23T03:40:24.774Z,100051.06
2022-09-23T03:42:56.365Z,100045.03
2022-09-23T03:45:29.667Z,100044.31
2022-09-23T03:47:58.596Z,100037.50
2022-09-23T03:50:29.161Z,100038.44
2022-09-23T03:52:57.722Z,100037.66
2022-09-23T03:55:26.248Z,100028.34
2022-09-23T03:57:55.774Z,100033.41
2022-09-23T04:00:24.385Z,100035.16
2022-09-23T04:02:52.973Z,100028.38
2022-09-23T04:05:21.474Z,100024.84
2022-09-23T04:07:51.435Z,100023.00
2022-09-23T04:10:20.498Z,100028.69
2022-09-23T04:12:49.224Z,100024.25
2022-09-23T04:15:17.965Z,100025.81
2022-09-23T04:17:46.596Z,100022.41
2022-09-23T04:20:15.476Z,100021.63
2022-09-23T04:22:43.903Z,100022.56
2022-09-23T04:25:13.925Z,100031.09
2022-09-23T04:27:42.494Z,100028.53
2022-09-23T04:30:11.973Z,100030.09
2022-09-23T04:32:40.603Z,100033.50
2022-09-23T04:35:09.816Z,100019.75
2022-09-23T04:37:38.427Z,100019.63
2022-09-23T04:40:08.534Z,100020.50
2022-09-23T04:42:38.514Z,100018.91
2022-09-23T04:45:07.942Z,100024.94
2022-09-23T04:47:37.054Z,100027.66
2022-09-23T04:50:06.166Z,100031.22
2022-09-23T04:52:34.847Z,100032.91
2022-09-23T04:55:03.375Z,100036.28
2022-09-23T04:57:32.218Z,100031.34
2022-09-23T05:00:02.626Z,100033.06
2022-09-23T05:02:32.351Z,100036.38
2022-09-23T05:05:01.170Z,100039.66
2022-09-23T05:07:30.250Z,100041.28
2022-09-23T05:09:58.735Z,100037.88
2022-09-23T05:12:27.455Z,100042.94
2022-09-23T05:14:56.128Z,100045.56
2022-09-23T05:17:26.081Z,100051.59
2022-09-23T05:19:54.828Z,100053.41
2022-09-23T05:22:23.378Z,100050.03
2022-09-23T05:24:52.017Z,100047.59
2022-09-23T05:27:20.689Z,100052.72
2022-09-23T05:29:50.615Z,100050.22
2022-09-23T05:32:18.876Z,100053.78
2022-09-23T05:34:49.030Z,100042.09
2022-09-23T05:37:17.568Z,100054.31
2022-09-23T05:39:46.037Z,100061.28
2022-09-23T05:42:14.689Z,100054.69
2022-09-23T05:44:43.657Z,100059.91
2022-09-23T05:47:12.427Z,100058.25
2022-09-23T05:49:58.772Z,100065.13
2022-09-23T05:52:30.605Z,100060.97
2022-09-23T05:54:59.135Z,100058.44
2022-09-23T05:57:27.706Z,100056.72
2022-09-23T05:59:56.408Z,100065.34
2022-09-23T06:02:25.354Z,100070.56
2022-09-23T06:04:53.868Z,100062.19
2022-09-23T06:07:22.486Z,100069.16
2022-09-23T06:09:54.376Z,100066.81
2022-09-23T06:12:23.450Z,100059.38
2022-09-23T06:14:53.178Z,100063.84
2022-09-23T06:17:21.548Z,100058.94
2022-09-23T06:19:50.039Z,100061.69
2022-09-23T06:22:18.876Z,100061.00
2022-09-23T06:24:47.337Z,100056.97
2022-09-23T06:27:17.326Z,100058.84
2022-09-23T06:29:45.869Z,100062.41
2022-09-23T06:32:14.317Z,100058.31
2022-09-23T06:34:51.704Z,100066.91
2022-09-23T06:37:21.046Z,100062.75
2022-09-23T06:39:49.718Z,100066.25
2022-09-23T06:42:19.830Z,100061.31
2022-09-23T06:44:48.350Z,100058.88
2022-09-23T06:47:17.136Z,100066.66
2022-09-23T06:49:45.720Z,100069.28
2022-09-23T06:52:14.251Z,100061.69
2022-09-23T06:54:42.804Z,100063.41
2022-09-23T06:57:11.483Z,100060.84
2022-09-23T06:59:41.928Z,100055.78
2022-09-23T07:02:11.273Z,100063.50
2022-09-23T07:04:40.110Z,100062.66
2022-09-23T07:07:10.562Z,100055.06
2022-09-23T07:09:39.150Z,100061.94
2022-09-23T07:12:08.358Z,100058.56
2022-09-23T07:14:36.857Z,100066.28
2022-09-23T07:17:07.200Z,100060.34
2022-09-23T07:19:36.726Z,100068.03
2022-09-23T07:22:05.586Z,100067.22
2022-09-23T07:24:34.894Z,100064.69
2022-09-23T07:27:03.445Z,100077.53
2022-09-23T07:29:41.741Z,100067.28
2022-09-23T07:32:17.741Z,100074.09
2022-09-23T07:34:47.636Z,100078.38
2022-09-23T07:37:16.241Z,100079.22
2022-09-23T07:39:45.375Z,100079.22
2022-09-23T07:42:15.326Z,100072.38
2022-09-23T07:44:48.238Z,100072.34
2022-09-23T07:47:18.446Z,100066.34
2022-09-23T07:49:47.150Z,100074.84
2022-09-23T07:52:15.770Z,100067.13
2022-09-23T07:54:44.339Z,100067.97
2022-09-23T07:57:12.953Z,100072.19
2022-09-23T07:59:43.477Z,100072.16
2022-09-23T08:02:16.731Z,100067.84
2022-09-23T08:04:46.891Z,100074.63
2022-09-23T08:07:15.736Z,100068.59
2022-09-23T08:09:45.906Z,100072.81
2022-09-23T08:12:18.630Z,100075.38
2022-09-23T08:14:47.508Z,100078.78
2022-09-23T08:17:16.168Z,100068.50
2022-09-23T08:19:44.666Z,100077.91
2022-09-23T08:22:15.903Z,100071.00
2022-09-23T08:24:44.407Z,100064.09
2022-09-23T08:27:12.917Z,100063.94
2022-09-23T08:29:41.670Z,100059.59
2022-09-23T08:32:10.290Z,100050.13
2022-09-23T08:34:38.841Z,100051.78
2022-09-23T08:37:12.218Z,100045.72
2022-09-23T08:39:42.148Z,100039.63
2022-09-23T08:42:20.262Z,100042.88
2022-09-23T08:44:54.067Z,100035.03
2022-09-23T08:47:26.490Z,100030.69
2022-09-23T08:50:01.797Z,100028.84
2022-09-23T08:52:37.197Z,100022.78
2022-09-23T08:55:13.332Z,100025.13
2022-09-23T08:58:02.314Z,100023.28
2022-09-23T09:00:42.311Z,100018.78
2022-09-23T09:03:22.370Z,100012.66
2022-09-23T09:05:54.421Z,100015.06
2022-09-23T09:08:29.983Z,100013.22
2022-09-23T09:11:01.028Z,100011.31
2022-09-23T09:13:33.639Z,100010.16
2022-09-23T09:16:23.949Z,100007.31
2022-09-23T09:19:18.442Z,100008.94
2022-09-23T09:21:53.225Z,100003.66
2022-09-23T09:24:29.240Z,99995.63
2022-09-23T09:26:59.625Z,100003.09
2022-09-23T09:29:36.224Z,99997.94
2022-09-23T09:32:18.911Z,99996.19
2022-09-23T09:34:54.911Z,99992.75
2022-09-23T09:37:31.787Z,99990.16
2022-09-23T09:40:01.101Z,99982.53
2022-09-23T09:42:40.231Z,99987.50
2022-09-23T09:45:20.043Z,99985.53
2022-09-23T09:47:57.069Z,99988.19
2022-09-23T09:50:45.039Z,99988.75
2022-09-23T09:53:22.725Z,99974.81
2022-09-23T09:56:05.963Z,99980.50
2022-09-23T09:58:44.186Z,99984.56
2022-09-23T10:01:25.272Z,99974.13
2022-09-23T10:03:59.233Z,99964.78
2022-09-23T10:06:31.971Z,99965.00
2022-09-23T10:09:14.041Z,99974.47
2022-09-23T10:11:43.382Z,99966.97
2022-09-23T10:14:19.159Z,99958.97
2022-09-23T10:17:04.105Z,99962.06
2022-09-23T10:19:33.637Z,99963.66
2022-09-23T10:22:06.751Z,99966.09
2022-09-23T10:24:37.629Z,99964.22
2022-09-23T10:27:10.072Z,99954.78
2022-09-23T10:29:43.292Z,99957.31
2022-09-23T10:32:22.074Z,99944.28
2022-09-23T10:34:54.752Z,99946.41
2022-09-23T10:37:32.127Z,99947.00
2022-09-23T10:40:12.102Z,99945.31
2022-09-23T10:43:08.435Z,99939.47
2022-09-23T10:45:51.495Z,99932.59
2022-09-23T10:48:28.919Z,99935.75
2022-09-23T10:50:59.928Z,99937.34
2022-09-23T10:53:42.553Z,99936.91
2022-09-23T10:56:25.073Z,99931.59
2022-09-23T10:59:11.400Z,99919.75
2022-09-23T11:01:50.852Z,99919.38
2022-09-23T11:04:39.255Z,99919.56
2022-09-23T11:07:19.617Z,99910.16
2022-09-23T11:10:23.245Z,99906.78
2022-09-23T11:13:08.289Z,99902.84
2022-09-23T11:15:46.536Z,99907.59
2022-09-23T11:18:44.563Z,99901.91
2022-09-23T11:21:42.832Z,99895.25
2022-09-23T11:24:29.345Z,99895.78
2022-09-23T11:27:10.204Z,99895.16
2022-09-23T11:29:59.474Z,99892.41
2022-09-23T11:32:54.453Z,99881.66
2022-09-23T11:35:29.154Z,99880.34
2022-09-23T11:38:03.599Z,99880.44
2022-09-23T11:40:35.478Z,99878.56
2022-09-23T11:43:08.697Z,99872.81
2022-09-23T11:45:43.579Z,99876.16
2022-09-23T11:48:17.636Z,99873.09
2022-09-23T11:50:52.067Z,99873.00
2022-09-23T11:53:30.377Z,99872.03
2022-09-23T11:56:08.071Z,99868.75
2022-09-23T11:58:46.602Z,99873.84
2022-09-23T12:01:35.112Z,99869.25
2022-09-23T12:04:20.116Z,99871.81
2022-09-23T12:06:56.204Z,99870.13
2022-09-23T12:09:53.863Z,99874.19
2022-09-23T12:12:28.968Z,99868.69
2022-09-23T12:15:04.163Z,99869.47
2022-09-23T12:17:52.820Z,99859.66
2022-09-23T12:20:43.486Z,99864.91
2022-09-23T12:23:29.978Z,99860.72
2022-09-23T12:26:02.397Z,99860.66
2022-09-23T12:28:36.266Z,99854.53
2022-09-23T12:31:10.586Z,99856.97
2022-09-23T12:33:39.831Z,99855.66
2022-09-23T12:36:10.865Z,99851.69
2022-09-23T12:38:48.642Z,99848.03
2022-09-23T12:41:26.218Z,99845.66
2022-09-23T12:44:02.960Z,99844.63
2022-09-23T12:46:31.760Z,99837.25
2022-09-23T12:49:03.812Z,99833.50
2022-09-23T12:51:33.243Z,99830.38
2022-09-23T12:57:03.047Z,99825.84
2022-09-23T12:59:34.830Z,99827.16
2022-09-23T13:02:24.411Z,99826.47
2022-09-23T13:05:10.706Z,99831.94
2022-09-23T13:07:45.373Z,99820.06
2022-09-23T13:10:19.803Z,99823.00
2022-09-23T13:12:50.016Z,99828.31
2022-09-23T13:15:28.895Z,99823.44
2022-09-23T13:18:23.376Z,99820.97
2022-09-23T13:20:57.175Z,99825.53
2022-09-23T13:23:26.967Z,99822.28
2022-09-23T13:25:58.542Z,99814.81
2022-09-23T13:28:34.765Z,99816.81
2022-09-23T13:31:06.523Z,99814.41
2022-09-23T13:33:45.354Z,99812.00
2022-09-23T13:36:16.477Z,99812.09
2022-09-23T13:38:47.095Z,99811.38
2022-09-23T13:41:19.495Z,99809.81
2022-09-23T13:43:52.095Z,99800.44
2022-09-23T13:46:23.292Z,99795.13
2022-09-23T13:48:55.199Z,99793.28
2022-09-23T13:51:26.393Z,99782.81
2022-09-23T13:53:56.747Z,99787.53
2022-09-23T13:56:28.172Z,99790.25
2022-09-23T13:59:21.758Z,99784.88
2022-09-23T14:01:50.635Z,99779.28
2022-09-23T14:04:25.562Z,99780.78
2022-09-23T14:06:54.896Z,99779.91
2022-09-23T14:09:28.741Z,99778.81
2022-09-23T14:12:00.932Z,99778.03
2022-09-23T14:14:31.658Z,99771.84
2022-09-23T14:17:00.718Z,99770.81
2022-09-23T14:19:29.425Z,99764.56
2022-09-23T14:21:59.258Z,99769.66
2022-09-23T14:24:34.930Z,99764.38
2022-09-23T14:27:16.871Z,99757.72
2022-09-23T14:29:49.534Z,99758.13
2022-09-23T14:32:24.002Z,99763.94
2022-09-23T14:34:55.086Z,99759.25
2022-09-23T14:37:39.139Z,99767.94
2022-09-23T14:40:14.866Z,99759.25
2022-09-23T14:42:47.080Z,99757.56
2022-09-23T14:45:21.130Z,99761.97
2022-09-23T14:47:53.157Z,99757.03
2022-09-23T14:50:34.214Z,99755.94
2022-09-23T14:53:02.989Z,99754.13
2022-09-23T14:55:32.503Z,99745.44
2022-09-23T14:58:06.397Z,99758.00
2022-09-23T15:00:36.460Z,99757.22
2022-09-23T15:03:16.128Z,99743.09
2022-09-23T15:05:48.058Z,99742.94
2022-09-23T15:08:20.459Z,99748.81
2022-09-23T15:10:50.619Z,99743.16
2022-09-23T15:13:23.056Z,99742.41
2022-09-23T15:15:55.542Z,99733.06
2022-09-23T15:18:26.518Z,99741.06
2022-09-23T15:20:58.666Z,99741.69
2022-09-23T15:23:35.893Z,99741.31
2022-09-23T15:26:07.903Z,99738.34
2022-09-23T15:28:36.967Z,99736.88
2022-09-23T15:31:09.382Z,99735.28
2022-09-23T15:33:38.177Z,99732.22
2022-09-23T15:36:08.571Z,99724.91
2022-09-23T15:38:43.599Z,99722.75
2022-09-23T15:41:13.922Z,99721.22
2022-09-23T15:43:43.081Z,99726.53
2022-09-23T15:46:19.212Z,99721.66
2022-09-23T15:48:58.777Z,99723.72
2022-09-23T15:51:27.922Z,99729.94
2022-09-23T15:53:56.585Z,99731.91
2022-09-23T15:56:27.328Z,99731.16
2022-09-23T15:58:56.089Z,99729.53
2022-09-23T16:01:29.752Z,99729.81
2022-09-23T16:04:01.433Z,99730.09
2022-09-23T16:06:29.983Z,99727.78
2022-09-23T16:08:58.711Z,99727.06
2022-09-23T16:11:32.103Z,99717.78
2022-09-23T16:14:01.786Z,99729.06
2022-09-23T16:16:32.074Z,99721.56
2022-09-23T16:19:00.827Z,99719.16
2022-09-23T16:21:30.441Z,99722.78
2022-09-23T16:23:59.495Z,99724.63
2022-09-23T16:26:31.118Z,99729.78
2022-09-23T16:29:01.081Z,99728.88
2022-09-23T16:31:31.570Z,99718.88
2022-09-23T16:34:02.817Z,99727.72
2022-09-23T16:36:33.919Z,99727.91
2022-09-23T16:39:07.059Z,99726.41
2022-09-23T16:41:35.939Z,99720.59
2022-09-23T16:44:07.819Z,99720.84
2022-09-23T16:46:38.016Z,99725.22
2022-09-23T16:49:06.872Z,99723.69
2022-09-23T16:51:38.697Z,99729.78
2022-09-23T16:54:10.462Z,99738.47
2022-09-23T16:56:45.592Z,99738.56
2022-09-23T16:59:14.527Z,99741.25
2022-09-23T17:02:01.611Z,99739.66
2022-09-23T17:04:30.404Z,99739.72
2022-09-23T17:06:59.410Z,99737.22
2022-09-23T17:09:30.460Z,99741.56
2022-09-23T17:12:08.107Z,99734.00
2022-09-23T17:14:36.963Z,99739.25
2022-09-23T17:17:06.896Z,99735.91
2022-09-23T17:19:35.870Z,99731.56
2022-09-23T17:22:04.447Z,99737.66
2022-09-23T17:24:33.037Z,99742.88
2022-09-23T17:27:01.723Z,99742.94
2022-09-23T17:29:30.787Z,99731.13
2022-09-23T17:31:59.388Z,99748.19
2022-09-23T17:34:30.121Z,99750.78
2022-09-23T17:36:59.068Z,99759.38
2022-09-23T17:39:27.661Z,99755.19
2022-09-23T17:41:58.932Z,99750.91
2022-09-23T17:44:27.770Z,99758.56
2022-09-23T17:46:56.424Z,99750.03
2022-09-23T17:49:25.309Z,99758.63
2022-09-23T17:51:56.071Z,99760.41
2022-09-23T17:54:24.849Z,99767.28
2022-09-23T17:56:53.402Z,99773.22
2022-09-23T17:59:21.931Z,99768.97
2022-09-23T18:01:50.454Z,99761.34
2022-09-23T18:04:19.401Z,99775.00
2022-09-23T18:06:48.641Z,99778.44
2022-09-23T18:09:19.303Z,99773.34
2022-09-23T18:11:50.045Z,99772.50
2022-09-23T18:14:21.535Z,99769.94
2022-09-23T18:16:52.345Z,99777.63
2022-09-23T18:19:25.001Z,99775.91
2022-09-23T18:21:56.309Z,99780.19
2022-09-23T18:24:34.001Z,99780.19
2022-09-23T18:27:03.123Z,99777.63
2022-09-23T18:29:31.884Z,99770.81
2022-09-23T18:32:00.554Z,99769.97
2022-09-23T18:34:29.699Z,99766.53
2022-09-23T18:36:58.722Z,99770.81
2022-09-23T18:39:30.425Z,99767.38
2022-09-23T18:41:59.164Z,99776.75
2022-09-23T18:44:27.964Z,99781.88
2022-09-23T18:46:56.670Z,99776.78
2022-09-23T18:49:36.392Z,99783.59
2022-09-23T18:52:07.067Z,99777.66
2022-09-23T18:54:37.806Z,99778.50
2022-09-23T18:57:06.566Z,99786.13
2022-09-23T18:59:35.401Z,99777.63
2022-09-23T19:02:04.371Z,99783.56
2022-09-23T19:04:33.183Z,99778.44
2022-09-23T19:07:01.974Z,99777.59
2022-09-23T19:09:30.644Z,99784.31
2022-09-23T19:12:02.690Z,99784.28
2022-09-23T19:14:31.787Z,99780.88
2022-09-23T19:17:00.425Z,99783.44
2022-09-23T19:19:32.547Z,99781.72
2022-09-23T19:22:01.906Z,99783.41
2022-09-23T19:24:30.636Z,99780.84
2022-09-23T19:27:03.536Z,99788.47
2022-09-23T19:29:32.314Z,99783.34
2022-09-23T19:32:01.094Z,99782.47
2022-09-23T19:34:31.200Z,99779.06
2022-09-23T19:36:59.966Z,99777.41
2022-09-23T19:39:31.905Z,99773.16
2022-09-23T19:42:02.267Z,99775.75
2022-09-23T19:44:31.077Z,99771.50
2022-09-23T19:47:00.508Z,99774.91
2022-09-23T19:49:31.127Z,99784.28
2022-09-23T19:52:00.641Z,99778.31
2022-09-23T19:54:29.378Z,99774.09
2022-09-23T19:56:59.647Z,99779.19
2022-09-23T19:59:30.142Z,99774.03
2022-09-23T20:01:58.990Z,99778.28
2022-09-23T20:04:27.727Z,99783.34
2022-09-23T20:06:56.505Z,99785.81
2022-09-23T20:09:25.136Z,99785.75
2022-09-23T20:11:53.907Z,99773.84
2022-09-23T20:14:24.757Z,99773.78
2022-09-23T20:16:55.098Z,99778.78
2022-09-23T20:19:24.256Z,99788.13
2022-09-23T20:22:13.088Z,99778.81
2022-09-23T20:24:41.846Z,99780.56
2022-09-23T20:27:09.463Z,99782.31
2022-09-23T20:29:38.973Z,99782.31
2022-09-23T20:32:09.498Z,99778.97
2022-09-23T20:34:38.397Z,99769.59
2022-09-23T20:37:07.077Z,99775.53
2022-09-23T20:39:36.538Z,99773.78
2022-09-23T20:42:09.559Z,99771.22
2022-09-23T20:44:38.409Z,99772.97
2022-09-23T20:47:08.515Z,99777.16
2022-09-23T20:49:38.278Z,99772.91
2022-09-23T20:52:07.457Z,99772.06
2022-09-23T20:54:39.126Z,99763.59
2022-09-23T20:57:08.000Z,99772.06
2022-09-23T20:59:37.168Z,99765.28
2022-09-23T21:02:07.248Z,99771.22
2022-09-23T21:04:37.497Z,99761.88
2022-09-23T21:07:06.180Z,99770.34
2022-09-23T21:09:34.898Z,99762.69
2022-09-23T21:12:04.072Z,99765.19
2022-09-23T21:14:33.015Z,99772.84
2022-09-23T21:17:01.635Z,99770.28
2022-09-23T21:19:30.529Z,99771.13
2022-09-23T21:22:00.519Z,99766.00
2022-09-23T21:27:19.177Z,99768.50
2022-09-23T21:29:47.827Z,99775.25
2022-09-23T21:32:16.488Z,99772.66
2022-09-23T21:34:45.060Z,99763.34
2022-09-23T21:37:15.187Z,99768.44
2022-09-23T21:40:04.170Z,99769.25
2022-09-23T21:42:32.898Z,99764.97
2022-09-23T21:45:01.902Z,99765.84
2022-09-23T21:47:32.645Z,99766.69
2022-09-23T21:50:01.553Z,99766.66
2022-09-23T21:52:31.673Z,99767.50
2022-09-23T21:55:00.379Z,99768.34
2022-09-23T21:57:31.839Z,99771.72
2022-09-23T22:00:00.412Z,99770.81
2022-09-23T22:02:29.023Z,99766.56
2022-09-23T22:04:57.978Z,99772.50
2022-09-23T22:07:26.819Z,99775.91
2022-09-23T22:09:57.246Z,99775.06
2022-09-23T22:12:24.897Z,99788.63
2022-09-23T22:14:53.558Z,99775.06
2022-09-23T22:17:24.232Z,99766.63
2022-09-23T22:19:52.926Z,99773.44
2022-09-23T22:22:21.517Z,99770.88
2022-09-23T22:24:51.717Z,99781.88
2022-09-23T22:27:21.998Z,99757.22
2022-09-23T22:30:00.709Z,99780.22
2022-09-23T22:32:39.219Z,99778.56
2022-09-23T22:35:09.156Z,99783.66
2022-09-23T22:37:39.539Z,99776.03
2022-09-23T22:40:11.241Z,99777.75
2022-09-23T22:42:41.896Z,99779.44
2022-09-23T22:45:11.960Z,99774.34
2022-09-23T22:47:44.359Z,99782.00
2022-09-23T22:50:14.628Z,99780.28
2022-09-23T22:52:43.322Z,99780.28
2022-09-23T22:55:12.609Z,99780.28
2022-09-23T22:57:42.758Z,99783.72
2022-09-23T23:00:13.718Z,99782.00
2022-09-23T23:02:42.789Z,99783.72
2022-09-23T23:05:11.861Z,99781.13
2022-09-23T23:07:40.682Z,99783.66
2022-09-23T23:10:10.541Z,99790.47
2022-09-23T23:12:39.656Z,99789.63
2022-09-23T23:15:13.011Z,99780.25
2022-09-23T23:17:43.775Z,99776.88
2022-09-23T23:20:12.485Z,99780.28
2022-09-23T23:22:41.174Z,99763.25
2022-09-23T23:25:10.939Z,99766.66
2022-09-23T23:27:39.674Z,99770.06
2022-09-23T23:30:10.974Z,99766.63
2022-09-23T23:32:39.680Z,99766.59
2022-09-23T23:35:09.218Z,99768.31
2022-09-23T23:37:37.878Z,99761.50
2022-09-23T23:40:07.426Z,99759.78
2022-09-23T23:42:35.972Z,99763.19
2022-09-23T23:45:04.947Z,99759.78
2022-09-23T23:47:36.026Z,99753.91
2022-09-23T23:50:05.760Z,99760.72
2022-09-23T23:52:34.371Z,99754.75
2022-09-23T23:55:03.305Z,99747.94
2022-09-23T23:57:31.877Z,99748.75
